Finlandia — OJPP — position and weather

sailwx.info

Track history (hours):
 
Tides and Currents Weather Stations Pressure Air Temp Water Temp Dewpoint Dewpoint Depression Visibility Wind Speed Wind Dir Waves Ship Positions

Finlandia

Last reported at 2018-Apr-24 03:01 UTC. Time now 2018-Apr-24 03:05 UTC.
Position N 59°27' E 024°47'.

Length 175 m; draft 7 m.

Type: Ship (hazmat cat A). MMSI: 230628000.

Date/timePositionNaut miles runAvg speedWind from/ knotsBaromVisibWave heightAir tempDewpointWater temp
2018-Apr-24 03:01N 59°27' E 024°47'1 1.2
2018-Apr-24 02:30N 59°27' E 024°46'0 0.0
2018-Apr-24 02:00N 59°27' E 024°46'0 0.0
2018-Apr-24 01:30N 59°27' E 024°46'0 0.0
2018-Apr-24 01:00N 59°27' E 024°46'0 0.0
2018-Apr-24 00:30N 59°27' E 024°46'0 0.0
2018-Apr-24 00:00N 59°27' E 024°46'0 0.0
2018-Apr-23 23:30N 59°27' E 024°46'0 0.0
2018-Apr-23 23:00N 59°27' E 024°46'0 0.0
2018-Apr-23 22:30N 59°27' E 024°46'0 0.0
2018-Apr-23 22:00N 59°27' E 024°46'0 0.0
2018-Apr-23 21:27N 59°27' E 024°46'0 0.0
2018-Apr-23 21:00N 59°27' E 024°46'3 6.6
2018-Apr-23 20:30N 59°30' E 024°45'1122.0
2018-Apr-23 20:01N 59°41' E 024°41'1122.6
2018-Apr-23 19:30N 59°51' E 024°48'1122.6
2018-Apr-23 19:00N 60°02' E 024°54'713.1
2018-Apr-23 18:30N 60°09' E 024°55'0 0.0
2018-Apr-23 18:00N 60°09' E 024°55'4 8.4
2018-Apr-23 17:30N 60°05' E 024°54'1020.5
2018-Apr-23 17:00N 59°55' E 024°52'1020.9
2018-Apr-23 16:30N 59°45' E 024°43'1020.5
2018-Apr-23 16:01N 59°35' E 024°42'816.5
2018-Apr-23 15:30N 59°27' E 024°47'0 0.8
2018-Apr-23 14:58N 59°27' E 024°46'0 0.0
2018-Apr-23 14:30N 59°27' E 024°46'612.8
2018-Apr-23 14:00N 59°33' E 024°42'1121.1
2018-Apr-23 13:31N 59°43' E 024°42'1121.9
2018-Apr-23 13:00N 59°54' E 024°50'1121.5
2018-Apr-23 12:30N 60°04' E 024°54'5 9.6
2018-Apr-23 12:00N 60°09' E 024°55'0 0.0
2018-Apr-23 11:29N 60°09' E 024°55'1 1.5
2018-Apr-23 11:00N 60°08' E 024°54'1019.6
2018-Apr-23 10:31N 59°59' E 024°54'1122.8
2018-Apr-23 10:01N 59°47' E 024°51'1223.0
2018-Apr-23 09:30N 59°37' E 024°41'1020.1
2018-Apr-23 09:00N 59°27' E 024°47'1 1.1
2018-Apr-23 08:28N 59°27' E 024°46'0 1.0
2018-Apr-23 08:01N 59°27' E 024°47'1021.0
2018-Apr-23 07:31N 59°37' E 024°40'1122.6
2018-Apr-23 07:00N 59°48' E 024°46'1122.5
2018-Apr-23 06:30N 59°58' E 024°54'1020.1
2018-Apr-23 06:00N 60°08' E 024°54'1 1.2
2018-Apr-23 05:27N 60°09' E 024°55'0 0.6
2018-Apr-23 05:00N 60°09' E 024°54'1019.1
2018-Apr-23 04:31N 59°59' E 024°54'1224.8
2018-Apr-23 04:01N 59°47' E 024°49'1224.7
2018-Apr-23 03:31N 59°35' E 024°42'917.6
2018-Apr-23 03:00N 59°27' E 024°46'0 0.6
2018-Apr-23 02:30N 59°27' E 024°46'0 0.0
2018-Apr-23 02:00N 59°27' E 024°46'0 0.0
2018-Apr-23 01:30N 59°27' E 024°46'0 0.0
2018-Apr-23 01:00N 59°27' E 024°46'0 0.0
2018-Apr-23 00:30N 59°27' E 024°46'0 0.0
2018-Apr-23 00:00N 59°27' E 024°46'0 0.0
2018-Apr-22 23:30N 59°27' E 024°46'0 0.0
2018-Apr-22 23:00N 59°27' E 024°46'0 0.0
2018-Apr-22 22:30N 59°27' E 024°46'0 0.0
2018-Apr-22 22:00N 59°27' E 024°46'0 0.0
2018-Apr-22 21:30N 59°27' E 024°46'0 0.0
2018-Apr-22 21:00N 59°27' E 024°46'2 3.6
2018-Apr-22 20:31N 59°28' E 024°46'1122.1
2018-Apr-22 20:01N 59°39' E 024°42'1223.2
2018-Apr-22 19:31N 59°50' E 024°51'1223.6
2018-Apr-22 19:00N 60°02' E 024°54'714.5
2018-Apr-22 18:31N 60°09' E 024°55'0 0.0
2018-Apr-22 18:01N 60°09' E 024°55'4 8.9
2018-Apr-22 17:30N 60°05' E 024°54'918.8
2018-Apr-22 17:00N 59°55' E 024°53'1019.4
2018-Apr-22 16:31N 59°46' E 024°48'1020.0
2018-Apr-22 16:01N 59°36' E 024°41'1019.5
2018-Apr-22 15:31N 59°27' E 024°47'1 1.1
2018-Apr-22 15:00N 59°27' E 024°46'0 0.0
2018-Apr-22 14:31N 59°27' E 024°46'612.2
2018-Apr-22 14:01N 59°33' E 024°43'918.5
2018-Apr-22 13:31N 59°42' E 024°45'1020.2
2018-Apr-22 13:01N 59°51' E 024°50'1020.3
2018-Apr-22 12:31N 60°01' E 024°54'714.9
2018-Apr-22 12:00N 60°09' E 024°55'0 0.0
2018-Apr-22 11:30N 60°09' E 024°55'2 3.6
2018-Apr-22 11:01N 60°07' E 024°54'1121.0
2018-Apr-22 10:31N 59°57' E 024°53'1223.2
2018-Apr-22 10:01N 59°46' E 024°44'1122.6
2018-Apr-22 09:31N 59°35' E 024°42'816.5
2018-Apr-22 09:01N 59°27' E 024°46'0 0.4
2018-Apr-22 08:28N 59°27' E 024°46'1 1.7
2018-Apr-22 08:01N 59°27' E 024°47'1020.5
2018-Apr-22 07:31N 59°37' E 024°40'1121.5
2018-Apr-22 07:01N 59°47' E 024°48'1121.5
2018-Apr-22 06:30N 59°57' E 024°53'1020.4
2018-Apr-22 06:00N 60°07' E 024°54'2 3.5
2018-Apr-22 05:31N 60°09' E 024°55'0 0.0
2018-Apr-22 05:00N 60°09' E 024°55'0 0.0
2018-Apr-22 04:30N 60°09' E 024°55'0 0.0
2018-Apr-22 04:00N 60°09' E 024°55'0 0.0
2018-Apr-22 03:30N 60°09' E 024°55'0 0.0
2018-Apr-22 03:00N 60°09' E 024°55'0 0.0
2018-Apr-22 02:30N 60°09' E 024°55'0 0.0
2018-Apr-22 02:00N 60°09' E 024°55'0 0.0
2018-Apr-22 01:30N 60°09' E 024°55'0 0.0
2018-Apr-22 01:00N 60°09' E 024°55'0 0.0
2018-Apr-22 00:30N 60°09' E 024°55'0 0.0
2018-Apr-22 00:00N 60°09' E 024°55'0 0.0
2018-Apr-21 23:30N 60°09' E 024°55'0 0.0
2018-Apr-21 23:00N 60°09' E 024°55'0 0.0
2018-Apr-21 22:30N 60°09' E 024°55'0 0.0
2018-Apr-21 22:00N 60°09' E 024°55'0 0.0
2018-Apr-21 21:30N 60°09' E 024°55'0 0.0
2018-Apr-21 21:00N 60°09' E 024°55'0 0.0
2018-Apr-21 20:30N 60°09' E 024°55'0 0.0
2018-Apr-21 20:00N 60°09' E 024°55'0 0.0
2018-Apr-21 19:30N 60°09' E 024°55'0 0.0
2018-Apr-21 19:00N 60°09' E 024°55'0 0.0
2018-Apr-21 18:27N 60°09' E 024°55'0 0.0
2018-Apr-21 18:00N 60°09' E 024°55'611.2
2018-Apr-21 17:30N 60°03' E 024°54'1019.1
2018-Apr-21 17:00N 59°54' E 024°52'1019.5
2018-Apr-21 16:30N 59°45' E 024°44'1019.9
2018-Apr-21 16:00N 59°35' E 024°42'816.9
2018-Apr-21 15:31N 59°27' E 024°46'0 0.4
2018-Apr-21 14:59N 59°27' E 024°46'0 0.1
2018-Apr-21 14:30N 59°27' E 024°46'815.3
2018-Apr-21 14:00N 59°34' E 024°42'1019.8
2018-Apr-21 13:31N 59°44' E 024°43'1019.7
2018-Apr-21 13:00N 59°53' E 024°50'1019.9
2018-Apr-21 12:30N 60°03' E 024°54'612.3
2018-Apr-21 12:00N 60°09' E 024°55'0 0.0
2018-Apr-21 11:25N 60°09' E 024°55'2 3.7
2018-Apr-21 11:00N 60°07' E 024°54'1020.6
2018-Apr-21 10:31N 59°57' E 024°53'1223.0
2018-Apr-21 10:01N 59°47' E 024°44'1223.2
2018-Apr-21 09:31N 59°35' E 024°42'917.4
2018-Apr-21 09:01N 59°27' E 024°46'0 0.6
2018-Apr-21 08:30N 59°27' E 024°46'1 2.8
2018-Apr-21 08:01N 59°28' E 024°46'1121.5
2018-Apr-21 07:31N 59°38' E 024°41'1122.4
2018-Apr-21 07:00N 59°49' E 024°49'1122.5
2018-Apr-21 06:30N 59°60' E 024°54'918.1
2018-Apr-21 06:00N 60°09' E 024°55'0 0.2
2018-Apr-21 05:31N 60°09' E 024°55'0 0.6
2018-Apr-21 05:01N 60°09' E 024°54'1019.3
2018-Apr-21 04:31N 59°59' E 024°54'1224.2
2018-Apr-21 04:01N 59°47' E 024°49'1223.7
2018-Apr-21 03:31N 59°36' E 024°41'1019.0
2018-Apr-21 03:00N 59°27' E 024°46'0 0.7
2018-Apr-21 02:31N 59°27' E 024°46'0 0.0
2018-Apr-21 01:59N 59°27' E 024°46'0 0.0
2018-Apr-21 01:29N 59°27' E 024°46'0 0.0
2018-Apr-21 00:59N 59°27' E 024°46'0 0.0
2018-Apr-21 00:29N 59°27' E 024°46'0 0.0
2018-Apr-20 23:59N 59°27' E 024°46'0 0.0
2018-Apr-20 23:29N 59°27' E 024°46'0 0.0
2018-Apr-20 22:59N 59°27' E 024°46'0 0.0
2018-Apr-20 22:29N 59°27' E 024°46'0 0.0
2018-Apr-20 21:59N 59°27' E 024°46'0 0.0
2018-Apr-20 21:29N 59°27' E 024°46'0 0.2
2018-Apr-20 21:00N 59°27' E 024°46'816.7
2018-Apr-20 20:31N 59°35' E 024°41'1122.2
2018-Apr-20 20:01N 59°46' E 024°44'1122.9
2018-Apr-20 19:30N 59°56' E 024°53'1121.1
2018-Apr-20 19:00N 60°07' E 024°54'2 4.4
2018-Apr-20 18:30N 60°09' E 024°55'0 0.0
2018-Apr-20 18:00N 60°09' E 024°55'4 7.7
2018-Apr-20 17:30N 60°05' E 024°54'1020.1
2018-Apr-20 17:00N 59°55' E 024°53'1020.5
2018-Apr-20 16:30N 59°45' E 024°48'1020.3
2018-Apr-20 16:01N 59°36' E 024°42'918.1
2018-Apr-20 15:31N 59°27' E 024°46'0 0.4
2018-Apr-20 14:59N 59°27' E 024°46'0 0.0
2018-Apr-20 14:30N 59°27' E 024°46'714.2
2018-Apr-20 14:01N 59°34' E 024°42'1020.4
2018-Apr-20 13:30N 59°43' E 024°47'1121.6
2018-Apr-20 13:00N 59°54' E 024°52'1121.5
2018-Apr-20 12:30N 60°05' E 024°54'4 8.7
2018-Apr-20 12:00N 60°09' E 024°55'0 0.0
2018-Apr-20 11:30N 60°09' E 024°55'0 0.4
2018-Apr-20 11:01N 60°09' E 024°54'918.7
2018-Apr-20 10:31N 59°59' E 024°54'1223.5
2018-Apr-20 10:01N 59°48' E 024°49'1223.5
2018-Apr-20 09:31N 59°37' E 024°41'1020.4
2018-Apr-20 09:01N 59°27' E 024°47'1 1.1
2018-Apr-20 08:29N 59°27' E 024°46'1 2.1
2018-Apr-20 08:00N 59°27' E 024°47'1121.7
2018-Apr-20 07:31N 59°38' E 024°40'1122.6
2018-Apr-20 07:01N 59°48' E 024°49'1122.8
2018-Apr-20 06:31N 59°59' E 024°54'1019.0
2018-Apr-20 06:00N 60°09' E 024°54'0 0.4
2018-Apr-20 05:28N 60°09' E 024°55'0 0.4
2018-Apr-20 05:00N 60°09' E 024°55'917.3
2018-Apr-20 04:30N 60°00' E 024°55'1122.8
2018-Apr-20 04:01N 59°49' E 024°49'1122.9
2018-Apr-20 03:30N 59°38' E 024°42'1121.8
2018-Apr-20 03:00N 59°27' E 024°46'1 1.7
2018-Apr-20 02:30N 59°27' E 024°46'0 0.0
2018-Apr-20 01:59N 59°27' E 024°46'0 0.0
2018-Apr-20 01:29N 59°27' E 024°46'0 0.0
2018-Apr-20 00:59N 59°27' E 024°46'0 0.0
2018-Apr-20 00:29N 59°27' E 024°46'0 0.0
2018-Apr-19 23:59N 59°27' E 024°46'0 0.0
2018-Apr-19 23:29N 59°27' E 024°46'0 0.0
2018-Apr-19 22:59N 59°27' E 024°46'0 0.0
2018-Apr-19 22:29N 59°27' E 024°46'0 0.0
2018-Apr-19 21:56N 59°27' E 024°46'0 0.0
2018-Apr-19 21:29N 59°27' E 024°46'2 3.3
2018-Apr-19 21:01N 59°28' E 024°46'1122.3
2018-Apr-19 20:31N 59°39' E 024°41'1123.0
2018-Apr-19 20:00N 59°50' E 024°50'1223.3
2018-Apr-19 19:30N 60°01' E 024°54'815.2
2018-Apr-19 19:00N 60°09' E 024°55'0 0.0
2018-Apr-19 18:31N 60°09' E 024°55'0 0.0
2018-Apr-19 18:01N 60°09' E 024°55'4 8.9
2018-Apr-19 17:30N 60°05' E 024°54'1122.3
2018-Apr-19 17:00N 59°53' E 024°53'1223.7
2018-Apr-19 16:31N 59°42' E 024°46'1121.5
2018-Apr-19 16:01N 59°31' E 024°45'5 9.1
2018-Apr-19 15:30N 59°27' E 024°46'0 0.0
2018-Apr-19 14:59N 59°27' E 024°46'2 5.1
2018-Apr-19 14:31N 59°29' E 024°45'1122.5
2018-Apr-19 14:01N 59°40' E 024°41'1223.0
2018-Apr-19 13:30N 59°51' E 024°48'1122.7
2018-Apr-19 13:00N 60°02' E 024°54'714.1
2018-Apr-19 12:31N 60°09' E 024°55'0 0.0
2018-Apr-19 12:00N 60°09' E 024°55'0 0.0
2018-Apr-19 11:30N 60°09' E 024°55'4 7.8
2018-Apr-19 11:00N 60°05' E 024°54'1122.2
2018-Apr-19 10:31N 59°54' E 024°51'1223.6
2018-Apr-19 10:01N 59°43' E 024°42'1123.0
2018-Apr-19 09:31N 59°32' E 024°44'510.3
2018-Apr-19 09:00N 59°27' E 024°46'0 0.0
2018-Apr-19 08:30N 59°27' E 024°46'2 3.3
2018-Apr-19 08:01N 59°28' E 024°46'1122.6
2018-Apr-19 07:31N 59°39' E 024°40'1223.4
2018-Apr-19 07:00N 59°50' E 024°48'1223.2
2018-Apr-19 06:31N 60°01' E 024°54'815.0
2018-Apr-19 06:01N 60°09' E 024°55'0 0.0
2018-Apr-19 05:29N 60°09' E 024°55'1 1.5
2018-Apr-19 05:00N 60°08' E 024°54'1019.1
2018-Apr-19 04:30N 59°59' E 024°54'1223.2
2018-Apr-19 04:01N 59°47' E 024°50'1223.2
2018-Apr-19 03:31N 59°37' E 024°41'1019.7
2018-Apr-19 03:00N 59°27' E 024°47'1 1.2
2018-Apr-19 02:28N 59°27' E 024°46'0 0.0
2018-Apr-19 01:58N 59°27' E 024°46'0 0.0
2018-Apr-19 01:28N 59°27' E 024°46'0 0.0
2018-Apr-19 00:58N 59°27' E 024°46'0 0.0
2018-Apr-19 00:28N 59°27' E 024°46'0 0.0
2018-Apr-18 23:58N 59°27' E 024°46'0 0.0
2018-Apr-18 23:28N 59°27' E 024°46'0 0.0
2018-Apr-18 22:58N 59°27' E 024°46'0 0.0
2018-Apr-18 22:28N 59°27' E 024°46'0 0.0
2018-Apr-18 21:58N 59°27' E 024°46'0 0.0
2018-Apr-18 21:28N 59°27' E 024°46'0 0.0
2018-Apr-18 21:00N 59°27' E 024°46'612.1
2018-Apr-18 20:31N 59°33' E 024°42'1020.9
2018-Apr-18 20:00N 59°43' E 024°46'1223.3
2018-Apr-18 19:30N 59°54' E 024°52'1122.5
2018-Apr-18 19:01N 60°05' E 024°54'4 7.3
2018-Apr-18 18:30N 60°09' E 024°55'0 0.0
2018-Apr-18 18:00N 60°09' E 024°55'4 7.6
2018-Apr-18 17:31N 60°05' E 024°54'1121.4
2018-Apr-18 17:01N 59°54' E 024°53'1122.9
2018-Apr-18 16:31N 59°43' E 024°47'1121.7
2018-Apr-18 16:01N 59°33' E 024°44'612.2
2018-Apr-18 15:30N 59°27' E 024°46'0 0.0
2018-Apr-18 14:59N 59°27' E 024°46'1 2.1
2018-Apr-18 14:30N 59°28' E 024°47'1122.0
2018-Apr-18 14:01N 59°38' E 024°41'1122.8
2018-Apr-18 13:31N 59°49' E 024°49'1123.0
2018-Apr-18 13:01N 59°60' E 024°54'918.1
2018-Apr-18 12:30N 60°09' E 024°55'0 0.1
2018-Apr-18 11:59N 60°09' E 024°55'0 0.0
2018-Apr-18 11:30N 60°09' E 024°55'510.9
2018-Apr-18 11:01N 60°04' E 024°54'1122.5
2018-Apr-18 10:30N 59°53' E 024°49'1223.8
2018-Apr-18 10:01N 59°41' E 024°42'1223.3
2018-Apr-18 09:31N 59°30' E 024°46'3 6.4
2018-Apr-18 09:01N 59°27' E 024°46'0 0.0
2018-Apr-18 08:31N 59°27' E 024°46'4 7.6
2018-Apr-18 08:01N 59°30' E 024°44'1121.2
2018-Apr-18 07:31N 59°41' E 024°44'1223.1
2018-Apr-18 07:00N 59°52' E 024°51'1122.6
2018-Apr-18 06:31N 60°03' E 024°53'611.4
2018-Apr-18 06:01N 60°09' E 024°55'0 0.0
2018-Apr-18 05:31N 60°09' E 024°55'1 2.5
2018-Apr-18 05:00N 60°08' E 024°54'1019.4
2018-Apr-18 04:30N 59°58' E 024°54'1122.4
2018-Apr-18 04:01N 59°47' E 024°50'1122.4
2018-Apr-18 03:31N 59°37' E 024°41'1020.0
2018-Apr-18 03:01N 59°27' E 024°47'1 1.2
2018-Apr-18 02:30N 59°27' E 024°46'0 0.0
2018-Apr-18 02:00N 59°27' E 024°46'0 0.0
2018-Apr-18 01:30N 59°27' E 024°46'0 0.0
2018-Apr-18 01:00N 59°27' E 024°46'0 0.0
2018-Apr-18 00:30N 59°27' E 024°46'0 0.0
2018-Apr-18 00:00N 59°27' E 024°46'0 0.0
2018-Apr-17 23:30N 59°27' E 024°46'0 0.0
2018-Apr-17 23:00N 59°27' E 024°46'0 0.0
2018-Apr-17 22:30N 59°27' E 024°46'0 0.0
2018-Apr-17 22:00N 59°27' E 024°46'0 0.0
2018-Apr-17 21:30N 59°27' E 024°46'0 0.0
2018-Apr-17 21:01N 59°27' E 024°46'714.1
2018-Apr-17 20:31N 59°33' E 024°42'1121.6
2018-Apr-17 20:01N 59°44' E 024°48'1123.0
2018-Apr-17 19:31N 59°55' E 024°53'1122.2
2018-Apr-17 19:00N 60°06' E 024°54'3 5.3
2018-Apr-17 18:29N 60°09' E 024°55'0 0.0
2018-Apr-17 17:58N 60°09' E 024°55'4 7.6
2018-Apr-17 17:31N 60°05' E 024°54'1020.2
2018-Apr-17 17:01N 59°55' E 024°53'1121.6
2018-Apr-17 16:31N 59°45' E 024°48'1121.1
2018-Apr-17 16:01N 59°35' E 024°42'816.2
2018-Apr-17 15:30N 59°27' E 024°46'0 0.3
2018-Apr-17 15:01N 59°27' E 024°46'0 0.1
2018-Apr-17 14:30N 59°27' E 024°46'917.2
2018-Apr-17 14:01N 59°35' E 024°41'1122.3
2018-Apr-17 13:31N 59°45' E 024°48'1223.1
2018-Apr-17 13:01N 59°57' E 024°53'1121.3
2018-Apr-17 12:31N 60°07' E 024°55'2 3.5
2018-Apr-17 12:00N 60°09' E 024°55'0 0.0
2018-Apr-17 11:29N 60°09' E 024°55'5 9.8
2018-Apr-17 11:01N 60°04' E 024°54'1122.7
2018-Apr-17 10:31N 59°53' E 024°50'1224.0
2018-Apr-17 10:01N 59°42' E 024°42'1223.5
2018-Apr-17 09:31N 59°30' E 024°45'4 7.2
2018-Apr-17 09:00N 59°27' E 024°46'0 0.0
2018-Apr-17 08:30N 59°27' E 024°46'5 9.3
2018-Apr-17 08:01N 59°31' E 024°44'1121.3
2018-Apr-17 07:31N 59°42' E 024°45'1223.2
2018-Apr-17 07:01N 59°53' E 024°53'1122.0
2018-Apr-17 06:30N 60°04' E 024°54'510.6
2018-Apr-17 06:01N 60°09' E 024°55'0 0.0
2018-Apr-17 05:31N 60°09' E 024°55'1 2.4
2018-Apr-17 05:00N 60°08' E 024°54'1020.3
2018-Apr-17 04:31N 59°58' E 024°54'1223.1
2018-Apr-17 04:00N 59°46' E 024°48'1121.7
2018-Apr-17 03:31N 59°36' E 024°41'918.9
2018-Apr-17 03:01N 59°27' E 024°47'1 1.1
2018-Apr-17 02:28N 59°27' E 024°46'0 0.0
2018-Apr-17 01:58N 59°27' E 024°46'0 0.0
2018-Apr-17 01:28N 59°27' E 024°46'0 0.0
2018-Apr-17 00:58N 59°27' E 024°46'0 0.0
2018-Apr-17 00:28N 59°27' E 024°46'0 0.0
2018-Apr-16 23:58N 59°27' E 024°46'0 0.0
2018-Apr-16 23:28N 59°27' E 024°46'0 0.0
2018-Apr-16 22:58N 59°27' E 024°46'0 0.0
2018-Apr-16 22:28N 59°27' E 024°46'0 0.0
2018-Apr-16 21:58N 59°27' E 024°46'0 0.0
2018-Apr-16 21:28N 59°27' E 024°46'0 0.0
2018-Apr-16 21:00N 59°27' E 024°46'612.6
2018-Apr-16 20:31N 59°33' E 024°42'1121.6
2018-Apr-16 20:01N 59°43' E 024°47'1223.2
2018-Apr-16 19:31N 59°55' E 024°52'1122.4
2018-Apr-16 19:00N 60°06' E 024°54'3 5.9
2018-Apr-16 18:28N 60°09' E 024°55'0 0.0
2018-Apr-16 17:58N 60°09' E 024°55'4 8.0
2018-Apr-16 17:30N 60°05' E 024°54'1020.9
2018-Apr-16 17:00N 59°55' E 024°53'1122.0
2018-Apr-16 16:31N 59°44' E 024°47'1021.0
2018-Apr-16 16:01N 59°34' E 024°43'714.7
2018-Apr-16 15:30N 59°27' E 024°46'0 0.1
2018-Apr-16 15:01N 59°27' E 024°46'0 0.1
2018-Apr-16 14:30N 59°27' E 024°46'816.3
2018-Apr-16 14:00N 59°34' E 024°41'1122.2
2018-Apr-16 13:31N 59°45' E 024°48'1223.2
2018-Apr-16 13:00N 59°56' E 024°53'1121.2
2018-Apr-16 12:30N 60°07' E 024°54'2 4.1
2018-Apr-16 12:00N 60°09' E 024°55'0 0.0
2018-Apr-16 11:30N 60°09' E 024°55'4 7.4
2018-Apr-16 11:01N 60°05' E 024°54'1122.2
2018-Apr-16 10:30N 59°54' E 024°51'1223.4
2018-Apr-16 10:00N 59°44' E 024°42'1223.1
2018-Apr-16 09:31N 59°32' E 024°44'510.9
2018-Apr-16 09:00N 59°27' E 024°46'0 0.0
2018-Apr-16 08:30N 59°27' E 024°46'1 2.1
2018-Apr-16 08:01N 59°28' E 024°47'1122.1
2018-Apr-16 07:31N 59°38' E 024°41'1223.4
2018-Apr-16 07:01N 59°49' E 024°50'1223.6
2018-Apr-16 06:30N 60°01' E 024°54'816.7
2018-Apr-16 06:00N 60°09' E 024°55'0 0.0
2018-Apr-16 05:30N 60°09' E 024°55'1 2.7
2018-Apr-16 05:00N 60°08' E 024°54'1019.9
2018-Apr-16 04:31N 59°58' E 024°54'1223.1
2018-Apr-16 04:01N 59°46' E 024°48'1122.8
2018-Apr-16 03:30N 59°36' E 024°42'917.8
2018-Apr-16 03:00N 59°27' E 024°47'0 1.0
2018-Apr-16 02:31N 59°27' E 024°46'0 0.0
2018-Apr-16 02:00N 59°27' E 024°46'0 0.0
2018-Apr-16 01:30N 59°27' E 024°46'0 0.0
2018-Apr-16 00:58N 59°27' E 024°46'0 0.0
2018-Apr-16 00:27N 59°27' E 024°46'0 0.0
2018-Apr-16 00:01N 59°27' E 024°46'0 0.0
2018-Apr-15 23:30N 59°27' E 024°46'0 0.0
2018-Apr-15 23:01N 59°27' E 024°46'0 0.0
2018-Apr-15 22:30N 59°27' E 024°46'0 0.0
2018-Apr-15 22:00N 59°27' E 024°46'0 0.0
2018-Apr-15 21:31N 59°27' E 024°46'0 0.0
2018-Apr-15 21:00N 59°27' E 024°46'3 6.9
2018-Apr-15 20:31N 59°30' E 024°44'1121.2
2018-Apr-15 20:01N 59°41' E 024°44'1223.0
2018-Apr-15 19:30N 59°52' E 024°50'1122.2
2018-Apr-15 19:00N 60°03' E 024°54'612.6
2018-Apr-15 18:30N 60°09' E 024°55'0 0.0
2018-Apr-15 18:00N 60°09' E 024°55'510.6
2018-Apr-15 17:30N 60°04' E 024°54'1019.8
2018-Apr-15 17:00N 59°54' E 024°51'1020.4
2018-Apr-15 16:31N 59°45' E 024°43'1019.9
2018-Apr-15 16:00N 59°35' E 024°42'816.3
2018-Apr-15 15:31N 59°27' E 024°46'0 0.4
2018-Apr-15 15:00N 59°27' E 024°46'0 0.0
2018-Apr-15 14:30N 59°27' E 024°46'611.7
2018-Apr-15 14:00N 59°32' E 024°43'1019.5
2018-Apr-15 13:31N 59°42' E 024°41'1020.4
2018-Apr-15 13:00N 59°52' E 024°49'1019.9
2018-Apr-15 12:31N 60°01' E 024°54'815.6
2018-Apr-15 12:00N 60°09' E 024°55'0 0.0
2018-Apr-15 11:28N 60°09' E 024°55'3 6.4
2018-Apr-15 11:00N 60°06' E 024°54'1121.8
2018-Apr-15 10:31N 59°55' E 024°52'1223.5
2018-Apr-15 10:01N 59°44' E 024°43'1122.7
2018-Apr-15 09:31N 59°33' E 024°43'612.6
2018-Apr-15 09:00N 59°27' E 024°46'0 0.0
2018-Apr-15 08:30N 59°27' E 024°46'0 1.0
2018-Apr-15 08:01N 59°27' E 024°47'1019.3
2018-Apr-15 07:30N 59°36' E 024°40'1021.0
2018-Apr-15 07:00N 59°46' E 024°48'1121.4
2018-Apr-15 06:30N 59°56' E 024°53'1020.4
2018-Apr-15 06:00N 60°06' E 024°54'3 5.5
2018-Apr-15 05:30N 60°09' E 024°55'0 0.0
2018-Apr-15 05:00N 60°09' E 024°55'0 0.0
2018-Apr-15 04:30N 60°09' E 024°55'0 0.0
2018-Apr-15 04:00N 60°09' E 024°55'0 0.0
2018-Apr-15 03:30N 60°09' E 024°55'0 0.0
2018-Apr-15 03:00N 60°09' E 024°55'0 0.0
2018-Apr-15 02:30N 60°09' E 024°55'0 0.0
2018-Apr-15 02:00N 60°09' E 024°55'0 0.0
2018-Apr-15 01:30N 60°09' E 024°55'0 0.0
2018-Apr-15 01:00N 60°09' E 024°55'0 0.0
2018-Apr-15 00:30N 60°09' E 024°55'0 0.0
2018-Apr-15 00:00N 60°09' E 024°55'0 0.0
2018-Apr-14 23:30N 60°09' E 024°55'0 0.0
2018-Apr-14 23:00N 60°09' E 024°55'0 0.0
2018-Apr-14 22:30N 60°09' E 024°55'0 0.0
2018-Apr-14 22:00N 60°09' E 024°55'0 0.0
2018-Apr-14 21:30N 60°09' E 024°55'0 0.0
2018-Apr-14 21:00N 60°09' E 024°55'0 0.0
2018-Apr-14 20:24N 60°09' E 024°55'0 0.0
2018-Apr-14 19:57N 60°09' E 024°55'0 0.0
2018-Apr-14 19:30N 60°09' E 024°55'0 0.0
2018-Apr-14 19:00N 60°09' E 024°55'0 0.0
2018-Apr-14 18:30N 60°09' E 024°55'0 0.0
2018-Apr-14 18:00N 60°09' E 024°55'510.7
2018-Apr-14 17:30N 60°04' E 024°54'917.9
2018-Apr-14 17:00N 59°55' E 024°52'1019.5
2018-Apr-14 16:30N 59°45' E 024°47'1019.3
2018-Apr-14 16:00N 59°36' E 024°41'918.5
2018-Apr-14 15:31N 59°27' E 024°47'1 1.7
2018-Apr-14 15:01N 59°27' E 024°46'0 0.1
2018-Apr-14 14:30N 59°27' E 024°46'815.2
2018-Apr-14 14:00N 59°34' E 024°41'918.5
2018-Apr-14 13:30N 59°43' E 024°46'1019.6
2018-Apr-14 13:00N 59°52' E 024°51'1019.5
2018-Apr-14 12:30N 60°02' E 024°54'713.0
2018-Apr-14 11:58N 60°09' E 024°55'0 0.0
2018-Apr-14 11:28N 60°09' E 024°55'2 4.0
2018-Apr-14 11:00N 60°07' E 024°54'1121.3
2018-Apr-14 10:30N 59°57' E 024°53'1223.6
2018-Apr-14 10:01N 59°46' E 024°44'1122.8
2018-Apr-14 09:31N 59°34' E 024°42'815.3
2018-Apr-14 09:00N 59°27' E 024°46'0 0.3
2018-Apr-14 08:31N 59°27' E 024°46'1 2.7
2018-Apr-14 08:01N 59°28' E 024°47'1021.0
2018-Apr-14 07:31N 59°38' E 024°41'1122.3
2018-Apr-14 07:01N 59°48' E 024°49'1122.5
2018-Apr-14 06:30N 59°59' E 024°54'918.9
2018-Apr-14 06:00N 60°09' E 024°55'0 0.3
2018-Apr-14 05:30N 60°09' E 024°55'1 1.6
2018-Apr-14 05:00N 60°08' E 024°54'918.8
2018-Apr-14 04:30N 59°59' E 024°54'1121.8
2018-Apr-14 04:00N 59°48' E 024°49'1121.3
2018-Apr-14 03:31N 59°38' E 024°42'1020.6
2018-Apr-14 03:01N 59°28' E 024°46'  
Track history (hours):
 
Tides and Currents Weather Stations Pressure Air Temp Water Temp Dewpoint Dewpoint Depression Visibility Wind Speed Wind Dir Waves Ship Positions

Finlandia

Last reported at 2018-Apr-24 03:01 UTC. Time now 2018-Apr-24 03:05 UTC.
Position N 59°27' E 024°47'.

Length 175 m; draft 7 m.

Type: Ship (hazmat cat A). MMSI: 230628000.

Date/timePositionNaut miles runAvg speedWind from/ knotsBaromVisibWave heightAir tempDewpointWater temp
2018-Apr-24 03:01N 59°27' E 024°47'1 1.2
2018-Apr-24 02:30N 59°27' E 024°46'0 0.0
2018-Apr-24 02:00N 59°27' E 024°46'0 0.0
2018-Apr-24 01:30N 59°27' E 024°46'0 0.0
2018-Apr-24 01:00N 59°27' E 024°46'0 0.0
2018-Apr-24 00:30N 59°27' E 024°46'0 0.0
2018-Apr-24 00:00N 59°27' E 024°46'0 0.0
2018-Apr-23 23:30N 59°27' E 024°46'0 0.0
2018-Apr-23 23:00N 59°27' E 024°46'0 0.0
2018-Apr-23 22:30N 59°27' E 024°46'0 0.0
2018-Apr-23 22:00N 59°27' E 024°46'0 0.0
2018-Apr-23 21:27N 59°27' E 024°46'0 0.0
2018-Apr-23 21:00N 59°27' E 024°46'3 6.6
2018-Apr-23 20:30N 59°30' E 024°45'1122.0
2018-Apr-23 20:01N 59°41' E 024°41'1122.6
2018-Apr-23 19:30N 59°51' E 024°48'1122.6
2018-Apr-23 19:00N 60°02' E 024°54'713.1
2018-Apr-23 18:30N 60°09' E 024°55'0 0.0
2018-Apr-23 18:00N 60°09' E 024°55'4 8.4
2018-Apr-23 17:30N 60°05' E 024°54'1020.5
2018-Apr-23 17:00N 59°55' E 024°52'1020.9
2018-Apr-23 16:30N 59°45' E 024°43'1020.5
2018-Apr-23 16:01N 59°35' E 024°42'816.5
2018-Apr-23 15:30N 59°27' E 024°47'0 0.8
2018-Apr-23 14:58N 59°27' E 024°46'0 0.0
2018-Apr-23 14:30N 59°27' E 024°46'612.8
2018-Apr-23 14:00N 59°33' E 024°42'1121.1
2018-Apr-23 13:31N 59°43' E 024°42'1121.9
2018-Apr-23 13:00N 59°54' E 024°50'1121.5
2018-Apr-23 12:30N 60°04' E 024°54'5 9.6
2018-Apr-23 12:00N 60°09' E 024°55'0 0.0
2018-Apr-23 11:29N 60°09' E 024°55'1 1.5
2018-Apr-23 11:00N 60°08' E 024°54'1019.6
2018-Apr-23 10:31N 59°59' E 024°54'1122.8
2018-Apr-23 10:01N 59°47' E 024°51'1223.0
2018-Apr-23 09:30N 59°37' E 024°41'1020.1
2018-Apr-23 09:00N 59°27' E 024°47'1 1.1
2018-Apr-23 08:28N 59°27' E 024°46'0 1.0
2018-Apr-23 08:01N 59°27' E 024°47'1021.0
2018-Apr-23 07:31N 59°37' E 024°40'1122.6
2018-Apr-23 07:00N 59°48' E 024°46'1122.5
2018-Apr-23 06:30N 59°58' E 024°54'1020.1
2018-Apr-23 06:00N 60°08' E 024°54'1 1.2
2018-Apr-23 05:27N 60°09' E 024°55'0 0.6
2018-Apr-23 05:00N 60°09' E 024°54'1019.1
2018-Apr-23 04:31N 59°59' E 024°54'1224.8
2018-Apr-23 04:01N 59°47' E 024°49'1224.7
2018-Apr-23 03:31N 59°35' E 024°42'917.6
2018-Apr-23 03:00N 59°27' E 024°46'0 0.6
2018-Apr-23 02:30N 59°27' E 024°46'0 0.0
2018-Apr-23 02:00N 59°27' E 024°46'0 0.0
2018-Apr-23 01:30N 59°27' E 024°46'0 0.0
2018-Apr-23 01:00N 59°27' E 024°46'0 0.0
2018-Apr-23 00:30N 59°27' E 024°46'0 0.0
2018-Apr-23 00:00N 59°27' E 024°46'0 0.0
2018-Apr-22 23:30N 59°27' E 024°46'0 0.0
2018-Apr-22 23:00N 59°27' E 024°46'0 0.0
2018-Apr-22 22:30N 59°27' E 024°46'0 0.0
2018-Apr-22 22:00N 59°27' E 024°46'0 0.0
2018-Apr-22 21:30N 59°27' E 024°46'0 0.0
2018-Apr-22 21:00N 59°27' E 024°46'2 3.6
2018-Apr-22 20:31N 59°28' E 024°46'1122.1
2018-Apr-22 20:01N 59°39' E 024°42'1223.2
2018-Apr-22 19:31N 59°50' E 024°51'1223.6
2018-Apr-22 19:00N 60°02' E 024°54'714.5
2018-Apr-22 18:31N 60°09' E 024°55'0 0.0
2018-Apr-22 18:01N 60°09' E 024°55'4 8.9
2018-Apr-22 17:30N 60°05' E 024°54'918.8
2018-Apr-22 17:00N 59°55' E 024°53'1019.4
2018-Apr-22 16:31N 59°46' E 024°48'1020.0
2018-Apr-22 16:01N 59°36' E 024°41'1019.5
2018-Apr-22 15:31N 59°27' E 024°47'1 1.1
2018-Apr-22 15:00N 59°27' E 024°46'0 0.0
2018-Apr-22 14:31N 59°27' E 024°46'612.2
2018-Apr-22 14:01N 59°33' E 024°43'918.5
2018-Apr-22 13:31N 59°42' E 024°45'1020.2
2018-Apr-22 13:01N 59°51' E 024°50'1020.3
2018-Apr-22 12:31N 60°01' E 024°54'714.9
2018-Apr-22 12:00N 60°09' E 024°55'0 0.0
2018-Apr-22 11:30N 60°09' E 024°55'2 3.6
2018-Apr-22 11:01N 60°07' E 024°54'1121.0
2018-Apr-22 10:31N 59°57' E 024°53'1223.2
2018-Apr-22 10:01N 59°46' E 024°44'1122.6
2018-Apr-22 09:31N 59°35' E 024°42'816.5
2018-Apr-22 09:01N 59°27' E 024°46'0 0.4
2018-Apr-22 08:28N 59°27' E 024°46'1 1.7
2018-Apr-22 08:01N 59°27' E 024°47'1020.5
2018-Apr-22 07:31N 59°37' E 024°40'1121.5
2018-Apr-22 07:01N 59°47' E 024°48'1121.5
2018-Apr-22 06:30N 59°57' E 024°53'1020.4
2018-Apr-22 06:00N 60°07' E 024°54'2 3.5
2018-Apr-22 05:31N 60°09' E 024°55'0 0.0
2018-Apr-22 05:00N 60°09' E 024°55'0 0.0
2018-Apr-22 04:30N 60°09' E 024°55'0 0.0
2018-Apr-22 04:00N 60°09' E 024°55'0 0.0
2018-Apr-22 03:30N 60°09' E 024°55'0 0.0
2018-Apr-22 03:00N 60°09' E 024°55'0 0.0
2018-Apr-22 02:30N 60°09' E 024°55'0 0.0
2018-Apr-22 02:00N 60°09' E 024°55'0 0.0
2018-Apr-22 01:30N 60°09' E 024°55'0 0.0
2018-Apr-22 01:00N 60°09' E 024°55'0 0.0
2018-Apr-22 00:30N 60°09' E 024°55'0 0.0
2018-Apr-22 00:00N 60°09' E 024°55'0 0.0
2018-Apr-21 23:30N 60°09' E 024°55'0 0.0
2018-Apr-21 23:00N 60°09' E 024°55'0 0.0
2018-Apr-21 22:30N 60°09' E 024°55'0 0.0
2018-Apr-21 22:00N 60°09' E 024°55'0 0.0
2018-Apr-21 21:30N 60°09' E 024°55'0 0.0
2018-Apr-21 21:00N 60°09' E 024°55'0 0.0
2018-Apr-21 20:30N 60°09' E 024°55'0 0.0
2018-Apr-21 20:00N 60°09' E 024°55'0 0.0
2018-Apr-21 19:30N 60°09' E 024°55'0 0.0
2018-Apr-21 19:00N 60°09' E 024°55'0 0.0
2018-Apr-21 18:27N 60°09' E 024°55'0 0.0
2018-Apr-21 18:00N 60°09' E 024°55'611.2
2018-Apr-21 17:30N 60°03' E 024°54'1019.1
2018-Apr-21 17:00N 59°54' E 024°52'1019.5
2018-Apr-21 16:30N 59°45' E 024°44'1019.9
2018-Apr-21 16:00N 59°35' E 024°42'816.9
2018-Apr-21 15:31N 59°27' E 024°46'0 0.4
2018-Apr-21 14:59N 59°27' E 024°46'0 0.1
2018-Apr-21 14:30N 59°27' E 024°46'815.3
2018-Apr-21 14:00N 59°34' E 024°42'1019.8
2018-Apr-21 13:31N 59°44' E 024°43'1019.7
2018-Apr-21 13:00N 59°53' E 024°50'1019.9
2018-Apr-21 12:30N 60°03' E 024°54'612.3
2018-Apr-21 12:00N 60°09' E 024°55'0 0.0
2018-Apr-21 11:25N 60°09' E 024°55'2 3.7
2018-Apr-21 11:00N 60°07' E 024°54'1020.6
2018-Apr-21 10:31N 59°57' E 024°53'1223.0
2018-Apr-21 10:01N 59°47' E 024°44'1223.2
2018-Apr-21 09:31N 59°35' E 024°42'917.4
2018-Apr-21 09:01N 59°27' E 024°46'0 0.6
2018-Apr-21 08:30N 59°27' E 024°46'1 2.8
2018-Apr-21 08:01N 59°28' E 024°46'1121.5
2018-Apr-21 07:31N 59°38' E 024°41'1122.4
2018-Apr-21 07:00N 59°49' E 024°49'1122.5
2018-Apr-21 06:30N 59°60' E 024°54'918.1
2018-Apr-21 06:00N 60°09' E 024°55'0 0.2
2018-Apr-21 05:31N 60°09' E 024°55'0 0.6
2018-Apr-21 05:01N 60°09' E 024°54'1019.3
2018-Apr-21 04:31N 59°59' E 024°54'1224.2
2018-Apr-21 04:01N 59°47' E 024°49'1223.7
2018-Apr-21 03:31N 59°36' E 024°41'1019.0
2018-Apr-21 03:00N 59°27' E 024°46'0 0.7
2018-Apr-21 02:31N 59°27' E 024°46'0 0.0
2018-Apr-21 01:59N 59°27' E 024°46'0 0.0
2018-Apr-21 01:29N 59°27' E 024°46'0 0.0
2018-Apr-21 00:59N 59°27' E 024°46'0 0.0
2018-Apr-21 00:29N 59°27' E 024°46'0 0.0
2018-Apr-20 23:59N 59°27' E 024°46'0 0.0
2018-Apr-20 23:29N 59°27' E 024°46'0 0.0
2018-Apr-20 22:59N 59°27' E 024°46'0 0.0
2018-Apr-20 22:29N 59°27' E 024°46'0 0.0
2018-Apr-20 21:59N 59°27' E 024°46'0 0.0
2018-Apr-20 21:29N 59°27' E 024°46'0 0.2
2018-Apr-20 21:00N 59°27' E 024°46'816.7
2018-Apr-20 20:31N 59°35' E 024°41'1122.2
2018-Apr-20 20:01N 59°46' E 024°44'1122.9
2018-Apr-20 19:30N 59°56' E 024°53'1121.1
2018-Apr-20 19:00N 60°07' E 024°54'2 4.4
2018-Apr-20 18:30N 60°09' E 024°55'0 0.0
2018-Apr-20 18:00N 60°09' E 024°55'4 7.7
2018-Apr-20 17:30N 60°05' E 024°54'1020.1
2018-Apr-20 17:00N 59°55' E 024°53'1020.5
2018-Apr-20 16:30N 59°45' E 024°48'1020.3
2018-Apr-20 16:01N 59°36' E 024°42'918.1
2018-Apr-20 15:31N 59°27' E 024°46'0 0.4
2018-Apr-20 14:59N 59°27' E 024°46'0 0.0
2018-Apr-20 14:30N 59°27' E 024°46'714.2
2018-Apr-20 14:01N 59°34' E 024°42'1020.4
2018-Apr-20 13:30N 59°43' E 024°47'1121.6
2018-Apr-20 13:00N 59°54' E 024°52'1121.5
2018-Apr-20 12:30N 60°05' E 024°54'4 8.7
2018-Apr-20 12:00N 60°09' E 024°55'0 0.0
2018-Apr-20 11:30N 60°09' E 024°55'0 0.4
2018-Apr-20 11:01N 60°09' E 024°54'918.7
2018-Apr-20 10:31N 59°59' E 024°54'1223.5
2018-Apr-20 10:01N 59°48' E 024°49'1223.5
2018-Apr-20 09:31N 59°37' E 024°41'1020.4
2018-Apr-20 09:01N 59°27' E 024°47'1 1.1
2018-Apr-20 08:29N 59°27' E 024°46'1 2.1
2018-Apr-20 08:00N 59°27' E 024°47'1121.7
2018-Apr-20 07:31N 59°38' E 024°40'1122.6
2018-Apr-20 07:01N 59°48' E 024°49'1122.8
2018-Apr-20 06:31N 59°59' E 024°54'1019.0
2018-Apr-20 06:00N 60°09' E 024°54'0 0.4
2018-Apr-20 05:28N 60°09' E 024°55'0 0.4
2018-Apr-20 05:00N 60°09' E 024°55'917.3
2018-Apr-20 04:30N 60°00' E 024°55'1122.8
2018-Apr-20 04:01N 59°49' E 024°49'1122.9
2018-Apr-20 03:30N 59°38' E 024°42'1121.8
2018-Apr-20 03:00N 59°27' E 024°46'1 1.7
2018-Apr-20 02:30N 59°27' E 024°46'0 0.0
2018-Apr-20 01:59N 59°27' E 024°46'0 0.0
2018-Apr-20 01:29N 59°27' E 024°46'0 0.0
2018-Apr-20 00:59N 59°27' E 024°46'0 0.0
2018-Apr-20 00:29N 59°27' E 024°46'0 0.0
2018-Apr-19 23:59N 59°27' E 024°46'0 0.0
2018-Apr-19 23:29N 59°27' E 024°46'0 0.0
2018-Apr-19 22:59N 59°27' E 024°46'0 0.0
2018-Apr-19 22:29N 59°27' E 024°46'0 0.0
2018-Apr-19 21:56N 59°27' E 024°46'0 0.0
2018-Apr-19 21:29N 59°27' E 024°46'2 3.3
2018-Apr-19 21:01N 59°28' E 024°46'1122.3
2018-Apr-19 20:31N 59°39' E 024°41'1123.0
2018-Apr-19 20:00N 59°50' E 024°50'1223.3
2018-Apr-19 19:30N 60°01' E 024°54'815.2
2018-Apr-19 19:00N 60°09' E 024°55'0 0.0
2018-Apr-19 18:31N 60°09' E 024°55'0 0.0
2018-Apr-19 18:01N 60°09' E 024°55'4 8.9
2018-Apr-19 17:30N 60°05' E 024°54'1122.3
2018-Apr-19 17:00N 59°53' E 024°53'1223.7
2018-Apr-19 16:31N 59°42' E 024°46'1121.5
2018-Apr-19 16:01N 59°31' E 024°45'5 9.1
2018-Apr-19 15:30N 59°27' E 024°46'0 0.0
2018-Apr-19 14:59N 59°27' E 024°46'2 5.1
2018-Apr-19 14:31N 59°29' E 024°45'1122.5
2018-Apr-19 14:01N 59°40' E 024°41'1223.0
2018-Apr-19 13:30N 59°51' E 024°48'1122.7
2018-Apr-19 13:00N 60°02' E 024°54'714.1
2018-Apr-19 12:31N 60°09' E 024°55'0 0.0
2018-Apr-19 12:00N 60°09' E 024°55'0 0.0
2018-Apr-19 11:30N 60°09' E 024°55'4 7.8
2018-Apr-19 11:00N 60°05' E 024°54'1122.2
2018-Apr-19 10:31N 59°54' E 024°51'1223.6
2018-Apr-19 10:01N 59°43' E 024°42'1123.0
2018-Apr-19 09:31N 59°32' E 024°44'510.3
2018-Apr-19 09:00N 59°27' E 024°46'0 0.0
2018-Apr-19 08:30N 59°27' E 024°46'2 3.3
2018-Apr-19 08:01N 59°28' E 024°46'1122.6
2018-Apr-19 07:31N 59°39' E 024°40'1223.4
2018-Apr-19 07:00N 59°50' E 024°48'1223.2
2018-Apr-19 06:31N 60°01' E 024°54'815.0
2018-Apr-19 06:01N 60°09' E 024°55'0 0.0
2018-Apr-19 05:29N 60°09' E 024°55'1 1.5
2018-Apr-19 05:00N 60°08' E 024°54'1019.1
2018-Apr-19 04:30N 59°59' E 024°54'1223.2
2018-Apr-19 04:01N 59°47' E 024°50'1223.2
2018-Apr-19 03:31N 59°37' E 024°41'1019.7
2018-Apr-19 03:00N 59°27' E 024°47'1 1.2
2018-Apr-19 02:28N 59°27' E 024°46'0 0.0
2018-Apr-19 01:58N 59°27' E 024°46'0 0.0
2018-Apr-19 01:28N 59°27' E 024°46'0 0.0
2018-Apr-19 00:58N 59°27' E 024°46'0 0.0
2018-Apr-19 00:28N 59°27' E 024°46'0 0.0
2018-Apr-18 23:58N 59°27' E 024°46'0 0.0
2018-Apr-18 23:28N 59°27' E 024°46'0 0.0
2018-Apr-18 22:58N 59°27' E 024°46'0 0.0
2018-Apr-18 22:28N 59°27' E 024°46'0 0.0
2018-Apr-18 21:58N 59°27' E 024°46'0 0.0
2018-Apr-18 21:28N 59°27' E 024°46'0 0.0
2018-Apr-18 21:00N 59°27' E 024°46'612.1
2018-Apr-18 20:31N 59°33' E 024°42'1020.9
2018-Apr-18 20:00N 59°43' E 024°46'1223.3
2018-Apr-18 19:30N 59°54' E 024°52'1122.5
2018-Apr-18 19:01N 60°05' E 024°54'4 7.3
2018-Apr-18 18:30N 60°09' E 024°55'0 0.0
2018-Apr-18 18:00N 60°09' E 024°55'4 7.6
2018-Apr-18 17:31N 60°05' E 024°54'1121.4
2018-Apr-18 17:01N 59°54' E 024°53'1122.9
2018-Apr-18 16:31N 59°43' E 024°47'1121.7
2018-Apr-18 16:01N 59°33' E 024°44'612.2
2018-Apr-18 15:30N 59°27' E 024°46'0 0.0
2018-Apr-18 14:59N 59°27' E 024°46'1 2.1
2018-Apr-18 14:30N 59°28' E 024°47'1122.0
2018-Apr-18 14:01N 59°38' E 024°41'1122.8
2018-Apr-18 13:31N 59°49' E 024°49'1123.0
2018-Apr-18 13:01N 59°60' E 024°54'918.1
2018-Apr-18 12:30N 60°09' E 024°55'0 0.1
2018-Apr-18 11:59N 60°09' E 024°55'0 0.0
2018-Apr-18 11:30N 60°09' E 024°55'510.9
2018-Apr-18 11:01N 60°04' E 024°54'1122.5
2018-Apr-18 10:30N 59°53' E 024°49'1223.8
2018-Apr-18 10:01N 59°41' E 024°42'1223.3
2018-Apr-18 09:31N 59°30' E 024°46'3 6.4
2018-Apr-18 09:01N 59°27' E 024°46'0 0.0
2018-Apr-18 08:31N 59°27' E 024°46'4 7.6
2018-Apr-18 08:01N 59°30' E 024°44'1121.2
2018-Apr-18 07:31N 59°41' E 024°44'1223.1
2018-Apr-18 07:00N 59°52' E 024°51'1122.6
2018-Apr-18 06:31N 60°03' E 024°53'611.4
2018-Apr-18 06:01N 60°09' E 024°55'0 0.0
2018-Apr-18 05:31N 60°09' E 024°55'1 2.5
2018-Apr-18 05:00N 60°08' E 024°54'1019.4
2018-Apr-18 04:30N 59°58' E 024°54'1122.4
2018-Apr-18 04:01N 59°47' E 024°50'1122.4
2018-Apr-18 03:31N 59°37' E 024°41'1020.0
2018-Apr-18 03:01N 59°27' E 024°47'1 1.2
2018-Apr-18 02:30N 59°27' E 024°46'0 0.0
2018-Apr-18 02:00N 59°27' E 024°46'0 0.0
2018-Apr-18 01:30N 59°27' E 024°46'0 0.0
2018-Apr-18 01:00N 59°27' E 024°46'0 0.0
2018-Apr-18 00:30N 59°27' E 024°46'0 0.0
2018-Apr-18 00:00N 59°27' E 024°46'0 0.0
2018-Apr-17 23:30N 59°27' E 024°46'0 0.0
2018-Apr-17 23:00N 59°27' E 024°46'0 0.0
2018-Apr-17 22:30N 59°27' E 024°46'0 0.0
2018-Apr-17 22:00N 59°27' E 024°46'0 0.0
2018-Apr-17 21:30N 59°27' E 024°46'0 0.0
2018-Apr-17 21:01N 59°27' E 024°46'714.1
2018-Apr-17 20:31N 59°33' E 024°42'1121.6
2018-Apr-17 20:01N 59°44' E 024°48'1123.0
2018-Apr-17 19:31N 59°55' E 024°53'1122.2
2018-Apr-17 19:00N 60°06' E 024°54'3 5.3
2018-Apr-17 18:29N 60°09' E 024°55'0 0.0
2018-Apr-17 17:58N 60°09' E 024°55'4 7.6
2018-Apr-17 17:31N 60°05' E 024°54'1020.2
2018-Apr-17 17:01N 59°55' E 024°53'1121.6
2018-Apr-17 16:31N 59°45' E 024°48'1121.1
2018-Apr-17 16:01N 59°35' E 024°42'816.2
2018-Apr-17 15:30N 59°27' E 024°46'0 0.3
2018-Apr-17 15:01N 59°27' E 024°46'0 0.1
2018-Apr-17 14:30N 59°27' E 024°46'917.2
2018-Apr-17 14:01N 59°35' E 024°41'1122.3
2018-Apr-17 13:31N 59°45' E 024°48'1223.1
2018-Apr-17 13:01N 59°57' E 024°53'1121.3
2018-Apr-17 12:31N 60°07' E 024°55'2 3.5
2018-Apr-17 12:00N 60°09' E 024°55'0 0.0
2018-Apr-17 11:29N 60°09' E 024°55'5 9.8
2018-Apr-17 11:01N 60°04' E 024°54'1122.7
2018-Apr-17 10:31N 59°53' E 024°50'1224.0
2018-Apr-17 10:01N 59°42' E 024°42'1223.5
2018-Apr-17 09:31N 59°30' E 024°45'4 7.2
2018-Apr-17 09:00N 59°27' E 024°46'0 0.0
2018-Apr-17 08:30N 59°27' E 024°46'5 9.3
2018-Apr-17 08:01N 59°31' E 024°44'1121.3
2018-Apr-17 07:31N 59°42' E 024°45'1223.2
2018-Apr-17 07:01N 59°53' E 024°53'1122.0
2018-Apr-17 06:30N 60°04' E 024°54'510.6
2018-Apr-17 06:01N 60°09' E 024°55'0 0.0
2018-Apr-17 05:31N 60°09' E 024°55'1 2.4
2018-Apr-17 05:00N 60°08' E 024°54'1020.3
2018-Apr-17 04:31N 59°58' E 024°54'1223.1
2018-Apr-17 04:00N 59°46' E 024°48'1121.7
2018-Apr-17 03:31N 59°36' E 024°41'918.9
2018-Apr-17 03:01N 59°27' E 024°47'1 1.1
2018-Apr-17 02:28N 59°27' E 024°46'0 0.0
2018-Apr-17 01:58N 59°27' E 024°46'0 0.0
2018-Apr-17 01:28N 59°27' E 024°46'0 0.0
2018-Apr-17 00:58N 59°27' E 024°46'0 0.0
2018-Apr-17 00:28N 59°27' E 024°46'0 0.0
2018-Apr-16 23:58N 59°27' E 024°46'0 0.0
2018-Apr-16 23:28N 59°27' E 024°46'0 0.0
2018-Apr-16 22:58N 59°27' E 024°46'0 0.0
2018-Apr-16 22:28N 59°27' E 024°46'0 0.0
2018-Apr-16 21:58N 59°27' E 024°46'0 0.0
2018-Apr-16 21:28N 59°27' E 024°46'0 0.0
2018-Apr-16 21:00N 59°27' E 024°46'612.6
2018-Apr-16 20:31N 59°33' E 024°42'1121.6
2018-Apr-16 20:01N 59°43' E 024°47'1223.2
2018-Apr-16 19:31N 59°55' E 024°52'1122.4
2018-Apr-16 19:00N 60°06' E 024°54'3 5.9
2018-Apr-16 18:28N 60°09' E 024°55'0 0.0
2018-Apr-16 17:58N 60°09' E 024°55'4 8.0
2018-Apr-16 17:30N 60°05' E 024°54'1020.9
2018-Apr-16 17:00N 59°55' E 024°53'1122.0
2018-Apr-16 16:31N 59°44' E 024°47'1021.0
2018-Apr-16 16:01N 59°34' E 024°43'714.7
2018-Apr-16 15:30N 59°27' E 024°46'0 0.1
2018-Apr-16 15:01N 59°27' E 024°46'0 0.1
2018-Apr-16 14:30N 59°27' E 024°46'816.3
2018-Apr-16 14:00N 59°34' E 024°41'1122.2
2018-Apr-16 13:31N 59°45' E 024°48'1223.2
2018-Apr-16 13:00N 59°56' E 024°53'1121.2
2018-Apr-16 12:30N 60°07' E 024°54'2 4.1
2018-Apr-16 12:00N 60°09' E 024°55'0 0.0
2018-Apr-16 11:30N 60°09' E 024°55'4 7.4
2018-Apr-16 11:01N 60°05' E 024°54'1122.2
2018-Apr-16 10:30N 59°54' E 024°51'1223.4
2018-Apr-16 10:00N 59°44' E 024°42'1223.1
2018-Apr-16 09:31N 59°32' E 024°44'510.9
2018-Apr-16 09:00N 59°27' E 024°46'0 0.0
2018-Apr-16 08:30N 59°27' E 024°46'1 2.1
2018-Apr-16 08:01N 59°28' E 024°47'1122.1
2018-Apr-16 07:31N 59°38' E 024°41'1223.4
2018-Apr-16 07:01N 59°49' E 024°50'1223.6
2018-Apr-16 06:30N 60°01' E 024°54'816.7
2018-Apr-16 06:00N 60°09' E 024°55'0 0.0
2018-Apr-16 05:30N 60°09' E 024°55'1 2.7
2018-Apr-16 05:00N 60°08' E 024°54'1019.9
2018-Apr-16 04:31N 59°58' E 024°54'1223.1
2018-Apr-16 04:01N 59°46' E 024°48'1122.8
2018-Apr-16 03:30N 59°36' E 024°42'917.8
2018-Apr-16 03:00N 59°27' E 024°47'0 1.0
2018-Apr-16 02:31N 59°27' E 024°46'0 0.0
2018-Apr-16 02:00N 59°27' E 024°46'0 0.0
2018-Apr-16 01:30N 59°27' E 024°46'0 0.0
2018-Apr-16 00:58N 59°27' E 024°46'0 0.0
2018-Apr-16 00:27N 59°27' E 024°46'0 0.0
2018-Apr-16 00:01N 59°27' E 024°46'0 0.0
2018-Apr-15 23:30N 59°27' E 024°46'0 0.0
2018-Apr-15 23:01N 59°27' E 024°46'0 0.0
2018-Apr-15 22:30N 59°27' E 024°46'0 0.0
2018-Apr-15 22:00N 59°27' E 024°46'0 0.0
2018-Apr-15 21:31N 59°27' E 024°46'0 0.0
2018-Apr-15 21:00N 59°27' E 024°46'3 6.9
2018-Apr-15 20:31N 59°30' E 024°44'1121.2
2018-Apr-15 20:01N 59°41' E 024°44'1223.0
2018-Apr-15 19:30N 59°52' E 024°50'1122.2
2018-Apr-15 19:00N 60°03' E 024°54'612.6
2018-Apr-15 18:30N 60°09' E 024°55'0 0.0
2018-Apr-15 18:00N 60°09' E 024°55'510.6
2018-Apr-15 17:30N 60°04' E 024°54'1019.8
2018-Apr-15 17:00N 59°54' E 024°51'1020.4
2018-Apr-15 16:31N 59°45' E 024°43'1019.9
2018-Apr-15 16:00N 59°35' E 024°42'816.3
2018-Apr-15 15:31N 59°27' E 024°46'0 0.4
2018-Apr-15 15:00N 59°27' E 024°46'0 0.0
2018-Apr-15 14:30N 59°27' E 024°46'611.7
2018-Apr-15 14:00N 59°32' E 024°43'1019.5
2018-Apr-15 13:31N 59°42' E 024°41'1020.4
2018-Apr-15 13:00N 59°52' E 024°49'1019.9
2018-Apr-15 12:31N 60°01' E 024°54'815.6
2018-Apr-15 12:00N 60°09' E 024°55'0 0.0
2018-Apr-15 11:28N 60°09' E 024°55'3 6.4
2018-Apr-15 11:00N 60°06' E 024°54'1121.8
2018-Apr-15 10:31N 59°55' E 024°52'1223.5
2018-Apr-15 10:01N 59°44' E 024°43'1122.7
2018-Apr-15 09:31N 59°33' E 024°43'612.6
2018-Apr-15 09:00N 59°27' E 024°46'0 0.0
2018-Apr-15 08:30N 59°27' E 024°46'0 1.0
2018-Apr-15 08:01N 59°27' E 024°47'1019.3
2018-Apr-15 07:30N 59°36' E 024°40'1021.0
2018-Apr-15 07:00N 59°46' E 024°48'1121.4
2018-Apr-15 06:30N 59°56' E 024°53'1020.4
2018-Apr-15 06:00N 60°06' E 024°54'3 5.5
2018-Apr-15 05:30N 60°09' E 024°55'0 0.0
2018-Apr-15 05:00N 60°09' E 024°55'0 0.0
2018-Apr-15 04:30N 60°09' E 024°55'0 0.0
2018-Apr-15 04:00N 60°09' E 024°55'0 0.0
2018-Apr-15 03:30N 60°09' E 024°55'0 0.0
2018-Apr-15 03:00N 60°09' E 024°55'0 0.0
2018-Apr-15 02:30N 60°09' E 024°55'0 0.0
2018-Apr-15 02:00N 60°09' E 024°55'0 0.0
2018-Apr-15 01:30N 60°09' E 024°55'0 0.0
2018-Apr-15 01:00N 60°09' E 024°55'0 0.0
2018-Apr-15 00:30N 60°09' E 024°55'0 0.0
2018-Apr-15 00:00N 60°09' E 024°55'0 0.0
2018-Apr-14 23:30N 60°09' E 024°55'0 0.0
2018-Apr-14 23:00N 60°09' E 024°55'0 0.0
2018-Apr-14 22:30N 60°09' E 024°55'0 0.0
2018-Apr-14 22:00N 60°09' E 024°55'0 0.0
2018-Apr-14 21:30N 60°09' E 024°55'0 0.0
2018-Apr-14 21:00N 60°09' E 024°55'0 0.0
2018-Apr-14 20:24N 60°09' E 024°55'0 0.0
2018-Apr-14 19:57N 60°09' E 024°55'0 0.0
2018-Apr-14 19:30N 60°09' E 024°55'0 0.0
2018-Apr-14 19:00N 60°09' E 024°55'0 0.0
2018-Apr-14 18:30N 60°09' E 024°55'0 0.0
2018-Apr-14 18:00N 60°09' E 024°55'510.7
2018-Apr-14 17:30N 60°04' E 024°54'917.9
2018-Apr-14 17:00N 59°55' E 024°52'1019.5
2018-Apr-14 16:30N 59°45' E 024°47'1019.3
2018-Apr-14 16:00N 59°36' E 024°41'918.5
2018-Apr-14 15:31N 59°27' E 024°47'1 1.7
2018-Apr-14 15:01N 59°27' E 024°46'0 0.1
2018-Apr-14 14:30N 59°27' E 024°46'815.2
2018-Apr-14 14:00N 59°34' E 024°41'918.5
2018-Apr-14 13:30N 59°43' E 024°46'1019.6
2018-Apr-14 13:00N 59°52' E 024°51'1019.5
2018-Apr-14 12:30N 60°02' E 024°54'713.0
2018-Apr-14 11:58N 60°09' E 024°55'0 0.0
2018-Apr-14 11:28N 60°09' E 024°55'2 4.0
2018-Apr-14 11:00N 60°07' E 024°54'1121.3
2018-Apr-14 10:30N 59°57' E 024°53'1223.6
2018-Apr-14 10:01N 59°46' E 024°44'1122.8
2018-Apr-14 09:31N 59°34' E 024°42'815.3
2018-Apr-14 09:00N 59°27' E 024°46'0 0.3
2018-Apr-14 08:31N 59°27' E 024°46'1 2.7
2018-Apr-14 08:01N 59°28' E 024°47'1021.0
2018-Apr-14 07:31N 59°38' E 024°41'1122.3
2018-Apr-14 07:01N 59°48' E 024°49'1122.5
2018-Apr-14 06:30N 59°59' E 024°54'918.9
2018-Apr-14 06:00N 60°09' E 024°55'0 0.3
2018-Apr-14 05:30N 60°09' E 024°55'1 1.6
2018-Apr-14 05:00N 60°08' E 024°54'918.8
2018-Apr-14 04:30N 59°59' E 024°54'1121.8
2018-Apr-14 04:00N 59°48' E 024°49'1121.3
2018-Apr-14 03:31N 59°38' E 024°42'1020.6
2018-Apr-14 03:01N 59°28' E 024°46'  

Dump ship's entire track history